sensor_id;sensor_type;location;lat;lon;timestamp;P1;durP1;ratioP1;P2;durP2;ratioP2
7829;SDS011;3960;51.86894000;5.39848000;2022-10-13T00:01:35;19.07;;;10.47;;
7829;SDS011;3960;51.86894000;5.39848000;2022-10-13T00:04:00;20.10;;;9.30;;
7829;SDS011;3960;51.86894000;5.39848000;2022-10-13T00:06:25;17.43;;;9.73;;
7829;SDS011;3960;51.86894000;5.39848000;2022-10-13T00:08:50;18.77;;;10.20;;
7829;SDS011;3960;51.86894000;5.39848000;2022-10-13T00:13:41;23.23;;;10.73;;
7829;SDS011;3960;51.86894000;5.39848000;2022-10-13T00:16:07;19.15;;;10.27;;
7829;SDS011;3960;51.86894000;5.39848000;2022-10-13T00:18:32;20.27;;;9.55;;
7829;SDS011;3960;51.86894000;5.39848000;2022-10-13T00:20:58;20.13;;;9.73;;
7829;SDS011;3960;51.86894000;5.39848000;2022-10-13T00:23:23;18.33;;;9.85;;
7829;SDS011;3960;51.86894000;5.39848000;2022-10-13T00:25:48;20.45;;;9.95;;
7829;SDS011;3960;51.86894000;5.39848000;2022-10-13T00:28:14;18.73;;;8.98;;
7829;SDS011;3960;51.86894000;5.39848000;2022-10-13T00:30:40;16.73;;;9.57;;
7829;SDS011;3960;51.86894000;5.39848000;2022-10-13T00:33:05;24.95;;;10.20;;
7829;SDS011;3960;51.86894000;5.39848000;2022-10-13T00:35:30;17.13;;;9.75;;
7829;SDS011;3960;51.86894000;5.39848000;2022-10-13T00:37:55;26.53;;;11.20;;
7829;SDS011;3960;51.86894000;5.39848000;2022-10-13T00:40:21;24.83;;;10.77;;
7829;SDS011;3960;51.86894000;5.39848000;2022-10-13T00:42:46;19.20;;;10.60;;
7829;SDS011;3960;51.86894000;5.39848000;2022-10-13T00:45:24;16.48;;;10.00;;
7829;SDS011;3960;51.86894000;5.39848000;2022-10-13T00:47:56;21.10;;;10.50;;
7829;SDS011;3960;51.86894000;5.39848000;2022-10-13T00:50:24;19.02;;;10.80;;
7829;SDS011;3960;51.86894000;5.39848000;2022-10-13T00:52:50;15.20;;;10.23;;
7829;SDS011;3960;51.86894000;5.39848000;2022-10-13T00:55:17;22.70;;;10.25;;
7829;SDS011;3960;51.86894000;5.39848000;2022-10-13T00:57:45;18.42;;;10.35;;
7829;SDS011;3960;51.86894000;5.39848000;2022-10-13T01:00:11;17.90;;;9.63;;
7829;SDS011;3960;51.86894000;5.39848000;2022-10-13T01:02:36;20.00;;;9.70;;
7829;SDS011;3960;51.86894000;5.39848000;2022-10-13T01:05:03;19.52;;;10.30;;
7829;SDS011;3960;51.86894000;5.39848000;2022-10-13T01:07:28;17.70;;;9.90;;
7829;SDS011;3960;51.86894000;5.39848000;2022-10-13T01:09:54;21.73;;;10.90;;
7829;SDS011;3960;51.86894000;5.39848000;2022-10-13T01:30:28;22.50;;;11.00;;
7829;SDS011;3960;51.86894000;5.39848000;2022-10-13T01:33:13;19.83;;;11.05;;
7829;SDS011;3960;51.86894000;5.39848000;2022-10-13T01:38:19;16.93;;;9.43;;
7829;SDS011;3960;51.86894000;5.39848000;2022-10-13T01:43:31;18.23;;;10.23;;
7829;SDS011;3960;51.86894000;5.39848000;2022-10-13T01:46:03;19.65;;;10.38;;
7829;SDS011;3960;51.86894000;5.39848000;2022-10-13T01:48:29;20.98;;;9.05;;
7829;SDS011;3960;51.86894000;5.39848000;2022-10-13T01:50:55;20.25;;;10.02;;
7829;SDS011;3960;51.86894000;5.39848000;2022-10-13T01:53:22;24.55;;;9.95;;
7829;SDS011;3960;51.86894000;5.39848000;2022-10-13T01:55:51;18.20;;;9.88;;
7829;SDS011;3960;51.86894000;5.39848000;2022-10-13T01:58:17;18.92;;;10.02;;
7829;SDS011;3960;51.86894000;5.39848000;2022-10-13T02:00:44;16.35;;;9.98;;
7829;SDS011;3960;51.86894000;5.39848000;2022-10-13T02:03:16;18.80;;;10.98;;
7829;SDS011;3960;51.86894000;5.39848000;2022-10-13T02:05:46;16.88;;;10.02;;
7829;SDS011;3960;51.86894000;5.39848000;2022-10-13T02:08:16;22.92;;;10.40;;
7829;SDS011;3960;51.86894000;5.39848000;2022-10-13T02:10:59;15.02;;;9.35;;
7829;SDS011;3960;51.86894000;5.39848000;2022-10-13T02:13:26;15.63;;;9.60;;
7829;SDS011;3960;51.86894000;5.39848000;2022-10-13T02:15:52;18.75;;;9.32;;
7829;SDS011;3960;51.86894000;5.39848000;2022-10-13T02:18:20;20.10;;;9.57;;
7829;SDS011;3960;51.86894000;5.39848000;2022-10-13T02:20:47;21.98;;;9.98;;
7829;SDS011;3960;51.86894000;5.39848000;2022-10-13T02:23:14;18.90;;;9.88;;
7829;SDS011;3960;51.86894000;5.39848000;2022-10-13T02:25:40;17.65;;;9.77;;
7829;SDS011;3960;51.86894000;5.39848000;2022-10-13T02:28:06;20.70;;;10.65;;
7829;SDS011;3960;51.86894000;5.39848000;2022-10-13T02:30:32;19.15;;;9.75;;
7829;SDS011;3960;51.86894000;5.39848000;2022-10-13T02:32:58;15.20;;;9.30;;
7829;SDS011;3960;51.86894000;5.39848000;2022-10-13T02:35:23;22.80;;;10.27;;
7829;SDS011;3960;51.86894000;5.39848000;2022-10-13T02:37:48;17.00;;;11.07;;
7829;SDS011;3960;51.86894000;5.39848000;2022-10-13T02:40:14;18.33;;;10.53;;
7829;SDS011;3960;51.86894000;5.39848000;2022-10-13T02:42:39;19.15;;;9.77;;
7829;SDS011;3960;51.86894000;5.39848000;2022-10-13T02:45:04;20.70;;;10.67;;
7829;SDS011;3960;51.86894000;5.39848000;2022-10-13T02:47:29;13.77;;;9.18;;
7829;SDS011;3960;51.86894000;5.39848000;2022-10-13T02:49:55;18.98;;;10.13;;
7829;SDS011;3960;51.86894000;5.39848000;2022-10-13T02:52:20;24.63;;;10.33;;
7829;SDS011;3960;51.86894000;5.39848000;2022-10-13T02:54:45;17.33;;;9.87;;
7829;SDS011;3960;51.86894000;5.39848000;2022-10-13T02:57:10;22.83;;;10.03;;
7829;SDS011;3960;51.86894000;5.39848000;2022-10-13T02:59:35;18.50;;;10.00;;
7829;SDS011;3960;51.86894000;5.39848000;2022-10-13T03:02:00;19.90;;;9.80;;
7829;SDS011;3960;51.86894000;5.39848000;2022-10-13T03:04:26;19.40;;;9.63;;
7829;SDS011;3960;51.86894000;5.39848000;2022-10-13T03:06:51;24.63;;;10.63;;
7829;SDS011;3960;51.86894000;5.39848000;2022-10-13T03:09:16;15.02;;;10.00;;
7829;SDS011;3960;51.86894000;5.39848000;2022-10-13T03:11:41;18.57;;;10.63;;
7829;SDS011;3960;51.86894000;5.39848000;2022-10-13T03:14:06;20.58;;;10.40;;
7829;SDS011;3960;51.86894000;5.39848000;2022-10-13T03:16:32;19.13;;;9.77;;
7829;SDS011;3960;51.86894000;5.39848000;2022-10-13T03:18:57;16.27;;;10.10;;
7829;SDS011;3960;51.86894000;5.39848000;2022-10-13T03:21:22;17.07;;;10.43;;
7829;SDS011;3960;51.86894000;5.39848000;2022-10-13T03:23:47;17.42;;;10.52;;
7829;SDS011;3960;51.86894000;5.39848000;2022-10-13T03:26:12;17.83;;;10.50;;
7829;SDS011;3960;51.86894000;5.39848000;2022-10-13T03:28:39;17.17;;;10.63;;
7829;SDS011;3960;51.86894000;5.39848000;2022-10-13T03:31:05;20.27;;;10.93;;
7829;SDS011;3960;51.86894000;5.39848000;2022-10-13T03:33:30;25.00;;;11.63;;
7829;SDS011;3960;51.86894000;5.39848000;2022-10-13T03:35:59;21.42;;;10.75;;
7829;SDS011;3960;51.86894000;5.39848000;2022-10-13T03:38:26;19.65;;;10.55;;
7829;SDS011;3960;51.86894000;5.39848000;2022-10-13T03:40:51;17.25;;;10.43;;
7829;SDS011;3960;51.86894000;5.39848000;2022-10-13T03:43:16;20.20;;;10.88;;
7829;SDS011;3960;51.86894000;5.39848000;2022-10-13T03:45:41;18.27;;;10.20;;
7829;SDS011;3960;51.86894000;5.39848000;2022-10-13T03:48:07;21.77;;;12.00;;
7829;SDS011;3960;51.86894000;5.39848000;2022-10-13T03:50:32;24.10;;;11.83;;
7829;SDS011;3960;51.86894000;5.39848000;2022-10-13T03:52:57;21.27;;;11.30;;
7829;SDS011;3960;51.86894000;5.39848000;2022-10-13T03:55:22;17.48;;;10.77;;
7829;SDS011;3960;51.86894000;5.39848000;2022-10-13T03:57:47;22.70;;;11.37;;
7829;SDS011;3960;51.86894000;5.39848000;2022-10-13T04:00:13;23.07;;;11.17;;
7829;SDS011;3960;51.86894000;5.39848000;2022-10-13T04:02:38;19.25;;;11.18;;
7829;SDS011;3960;51.86894000;5.39848000;2022-10-13T04:05:03;22.27;;;11.13;;
7829;SDS011;3960;51.86894000;5.39848000;2022-10-13T04:07:28;21.80;;;10.50;;
7829;SDS011;3960;51.86894000;5.39848000;2022-10-13T04:09:54;19.23;;;10.23;;
7829;SDS011;3960;51.86894000;5.39848000;2022-10-13T04:12:19;22.52;;;10.57;;
7829;SDS011;3960;51.86894000;5.39848000;2022-10-13T04:14:44;22.50;;;11.10;;
7829;SDS011;3960;51.86894000;5.39848000;2022-10-13T04:17:09;20.73;;;11.23;;
7829;SDS011;3960;51.86894000;5.39848000;2022-10-13T04:19:34;18.53;;;11.57;;
7829;SDS011;3960;51.86894000;5.39848000;2022-10-13T04:22:00;21.67;;;11.05;;
7829;SDS011;3960;51.86894000;5.39848000;2022-10-13T04:24:25;23.63;;;11.23;;
7829;SDS011;3960;51.86894000;5.39848000;2022-10-13T04:26:50;26.15;;;11.43;;
7829;SDS011;3960;51.86894000;5.39848000;2022-10-13T04:29:15;21.40;;;11.17;;
7829;SDS011;3960;51.86894000;5.39848000;2022-10-13T04:31:41;27.63;;;11.50;;
7829;SDS011;3960;51.86894000;5.39848000;2022-10-13T04:34:09;21.17;;;11.63;;
7829;SDS011;3960;51.86894000;5.39848000;2022-10-13T04:36:34;21.80;;;11.10;;
7829;SDS011;3960;51.86894000;5.39848000;2022-10-13T04:39:00;25.15;;;11.38;;
7829;SDS011;3960;51.86894000;5.39848000;2022-10-13T04:41:25;21.23;;;11.67;;
7829;SDS011;3960;51.86894000;5.39848000;2022-10-13T04:43:51;20.47;;;10.97;;
7829;SDS011;3960;51.86894000;5.39848000;2022-10-13T04:46:17;18.30;;;10.93;;
7829;SDS011;3960;51.86894000;5.39848000;2022-10-13T04:48:43;18.63;;;12.30;;
7829;SDS011;3960;51.86894000;5.39848000;2022-10-13T04:51:12;23.83;;;11.70;;
7829;SDS011;3960;51.86894000;5.39848000;2022-10-13T04:53:38;25.50;;;11.38;;
7829;SDS011;3960;51.86894000;5.39848000;2022-10-13T04:56:07;19.25;;;10.93;;
7829;SDS011;3960;51.86894000;5.39848000;2022-10-13T04:58:34;24.85;;;10.98;;
7829;SDS011;3960;51.86894000;5.39848000;2022-10-13T05:00:59;18.30;;;11.25;;
7829;SDS011;3960;51.86894000;5.39848000;2022-10-13T05:03:24;17.90;;;10.90;;
7829;SDS011;3960;51.86894000;5.39848000;2022-10-13T05:05:50;25.60;;;12.18;;
7829;SDS011;3960;51.86894000;5.39848000;2022-10-13T05:08:15;31.05;;;12.88;;
7829;SDS011;3960;51.86894000;5.39848000;2022-10-13T05:10:40;26.13;;;11.63;;
7829;SDS011;3960;51.86894000;5.39848000;2022-10-13T05:13:06;23.80;;;11.55;;
7829;SDS011;3960;51.86894000;5.39848000;2022-10-13T05:15:31;23.80;;;11.37;;
7829;SDS011;3960;51.86894000;5.39848000;2022-10-13T05:17:57;23.77;;;11.90;;
7829;SDS011;3960;51.86894000;5.39848000;2022-10-13T05:20:22;23.20;;;12.10;;
7829;SDS011;3960;51.86894000;5.39848000;2022-10-13T05:22:47;20.77;;;11.87;;
7829;SDS011;3960;51.86894000;5.39848000;2022-10-13T05:25:12;20.00;;;11.47;;
7829;SDS011;3960;51.86894000;5.39848000;2022-10-13T05:27:38;21.13;;;11.20;;
7829;SDS011;3960;51.86894000;5.39848000;2022-10-13T05:30:03;20.63;;;11.48;;
7829;SDS011;3960;51.86894000;5.39848000;2022-10-13T05:32:28;32.00;;;12.48;;
7829;SDS011;3960;51.86894000;5.39848000;2022-10-13T05:34:53;17.98;;;11.45;;
7829;SDS011;3960;51.86894000;5.39848000;2022-10-13T05:37:18;22.77;;;12.13;;
7829;SDS011;3960;51.86894000;5.39848000;2022-10-13T05:39:46;22.73;;;12.18;;
7829;SDS011;3960;51.86894000;5.39848000;2022-10-13T05:42:11;20.27;;;11.30;;
7829;SDS011;3960;51.86894000;5.39848000;2022-10-13T05:44:36;25.13;;;11.30;;
7829;SDS011;3960;51.86894000;5.39848000;2022-10-13T05:47:02;20.55;;;12.18;;
7829;SDS011;3960;51.86894000;5.39848000;2022-10-13T05:49:27;20.33;;;10.65;;
7829;SDS011;3960;51.86894000;5.39848000;2022-10-13T05:51:54;21.75;;;10.73;;
7829;SDS011;3960;51.86894000;5.39848000;2022-10-13T05:54:22;19.02;;;10.55;;
7829;SDS011;3960;51.86894000;5.39848000;2022-10-13T05:56:53;18.10;;;10.85;;
7829;SDS011;3960;51.86894000;5.39848000;2022-10-13T05:59:21;19.00;;;11.73;;
7829;SDS011;3960;51.86894000;5.39848000;2022-10-13T06:01:47;19.17;;;10.98;;
7829;SDS011;3960;51.86894000;5.39848000;2022-10-13T06:04:14;20.02;;;11.55;;
7829;SDS011;3960;51.86894000;5.39848000;2022-10-13T06:06:40;26.00;;;12.07;;
7829;SDS011;3960;51.86894000;5.39848000;2022-10-13T06:09:05;24.48;;;11.20;;
7829;SDS011;3960;51.86894000;5.39848000;2022-10-13T06:11:30;21.23;;;11.93;;
7829;SDS011;3960;51.86894000;5.39848000;2022-10-13T06:13:56;19.17;;;11.37;;
7829;SDS011;3960;51.86894000;5.39848000;2022-10-13T06:16:21;23.67;;;11.70;;
7829;SDS011;3960;51.86894000;5.39848000;2022-10-13T06:18:46;27.27;;;12.73;;
7829;SDS011;3960;51.86894000;5.39848000;2022-10-13T06:21:11;25.23;;;11.70;;
7829;SDS011;3960;51.86894000;5.39848000;2022-10-13T06:23:37;24.40;;;12.48;;
7829;SDS011;3960;51.86894000;5.39848000;2022-10-13T06:26:02;22.77;;;12.93;;
7829;SDS011;3960;51.86894000;5.39848000;2022-10-13T06:28:27;28.67;;;13.03;;
7829;SDS011;3960;51.86894000;5.39848000;2022-10-13T06:30:53;28.30;;;12.63;;
7829;SDS011;3960;51.86894000;5.39848000;2022-10-13T06:33:20;24.20;;;13.30;;
7829;SDS011;3960;51.86894000;5.39848000;2022-10-13T06:35:46;27.00;;;13.43;;
7829;SDS011;3960;51.86894000;5.39848000;2022-10-13T06:38:11;24.75;;;13.13;;
7829;SDS011;3960;51.86894000;5.39848000;2022-10-13T06:40:36;24.30;;;13.10;;
7829;SDS011;3960;51.86894000;5.39848000;2022-10-13T06:43:01;27.93;;;14.80;;
7829;SDS011;3960;51.86894000;5.39848000;2022-10-13T06:45:26;24.03;;;14.03;;
7829;SDS011;3960;51.86894000;5.39848000;2022-10-13T06:47:52;30.37;;;13.50;;
7829;SDS011;3960;51.86894000;5.39848000;2022-10-13T06:50:18;27.92;;;14.48;;
7829;SDS011;3960;51.86894000;5.39848000;2022-10-13T06:52:43;27.17;;;13.50;;
7829;SDS011;3960;51.86894000;5.39848000;2022-10-13T06:55:08;29.63;;;14.37;;
7829;SDS011;3960;51.86894000;5.39848000;2022-10-13T06:57:33;26.00;;;14.45;;
7829;SDS011;3960;51.86894000;5.39848000;2022-10-13T06:59:59;28.30;;;15.82;;
7829;SDS011;3960;51.86894000;5.39848000;2022-10-13T07:02:24;26.83;;;15.17;;
7829;SDS011;3960;51.86894000;5.39848000;2022-10-13T07:04:49;33.67;;;16.67;;
7829;SDS011;3960;51.86894000;5.39848000;2022-10-13T07:07:14;32.13;;;17.00;;
7829;SDS011;3960;51.86894000;5.39848000;2022-10-13T07:09:40;36.40;;;16.80;;
7829;SDS011;3960;51.86894000;5.39848000;2022-10-13T07:12:05;33.60;;;17.10;;
7829;SDS011;3960;51.86894000;5.39848000;2022-10-13T07:14:31;37.45;;;17.63;;
7829;SDS011;3960;51.86894000;5.39848000;2022-10-13T07:16:57;35.90;;;17.45;;
7829;SDS011;3960;51.86894000;5.39848000;2022-10-13T07:19:22;34.67;;;17.23;;
7829;SDS011;3960;51.86894000;5.39848000;2022-10-13T07:21:47;38.33;;;16.90;;
7829;SDS011;3960;51.86894000;5.39848000;2022-10-13T07:24:12;39.95;;;16.67;;
7829;SDS011;3960;51.86894000;5.39848000;2022-10-13T07:26:38;30.42;;;16.50;;
7829;SDS011;3960;51.86894000;5.39848000;2022-10-13T07:29:03;36.10;;;17.10;;
7829;SDS011;3960;51.86894000;5.39848000;2022-10-13T07:31:28;35.00;;;16.97;;
7829;SDS011;3960;51.86894000;5.39848000;2022-10-13T07:33:53;34.58;;;16.33;;
7829;SDS011;3960;51.86894000;5.39848000;2022-10-13T07:36:20;31.52;;;16.92;;
7829;SDS011;3960;51.86894000;5.39848000;2022-10-13T07:38:46;34.20;;;16.30;;
7829;SDS011;3960;51.86894000;5.39848000;2022-10-13T07:41:11;34.40;;;16.43;;
7829;SDS011;3960;51.86894000;5.39848000;2022-10-13T07:43:37;35.35;;;16.15;;
7829;SDS011;3960;51.86894000;5.39848000;2022-10-13T07:46:03;29.58;;;16.08;;
7829;SDS011;3960;51.86894000;5.39848000;2022-10-13T07:48:31;33.10;;;16.92;;
7829;SDS011;3960;51.86894000;5.39848000;2022-10-13T07:50:57;33.80;;;16.45;;
7829;SDS011;3960;51.86894000;5.39848000;2022-10-13T07:53:22;28.10;;;16.48;;
7829;SDS011;3960;51.86894000;5.39848000;2022-10-13T07:55:47;25.43;;;14.90;;
7829;SDS011;3960;51.86894000;5.39848000;2022-10-13T07:58:12;27.17;;;15.13;;
7829;SDS011;3960;51.86894000;5.39848000;2022-10-13T08:00:37;31.93;;;15.20;;
7829;SDS011;3960;51.86894000;5.39848000;2022-10-13T08:03:03;27.00;;;15.70;;
7829;SDS011;3960;51.86894000;5.39848000;2022-10-13T08:05:28;34.65;;;17.15;;
7829;SDS011;3960;51.86894000;5.39848000;2022-10-13T08:07:53;33.87;;;17.20;;
7829;SDS011;3960;51.86894000;5.39848000;2022-10-13T08:10:18;34.08;;;16.63;;
7829;SDS011;3960;51.86894000;5.39848000;2022-10-13T08:12:44;32.20;;;17.48;;
7829;SDS011;3960;51.86894000;5.39848000;2022-10-13T08:15:10;30.53;;;15.70;;
7829;SDS011;3960;51.86894000;5.39848000;2022-10-13T08:17:35;34.47;;;16.43;;
7829;SDS011;3960;51.86894000;5.39848000;2022-10-13T08:20:01;35.13;;;16.40;;
7829;SDS011;3960;51.86894000;5.39848000;2022-10-13T08:22:26;31.70;;;15.98;;
7829;SDS011;3960;51.86894000;5.39848000;2022-10-13T08:24:51;26.95;;;15.13;;
7829;SDS011;3960;51.86894000;5.39848000;2022-10-13T08:27:18;26.50;;;14.98;;
7829;SDS011;3960;51.86894000;5.39848000;2022-10-13T08:29:44;60.65;;;17.90;;
7829;SDS011;3960;51.86894000;5.39848000;2022-10-13T08:32:09;36.85;;;16.10;;
7829;SDS011;3960;51.86894000;5.39848000;2022-10-13T08:34:35;28.40;;;14.73;;
7829;SDS011;3960;51.86894000;5.39848000;2022-10-13T08:37:01;28.88;;;14.75;;
7829;SDS011;3960;51.86894000;5.39848000;2022-10-13T08:39:26;33.30;;;15.93;;
7829;SDS011;3960;51.86894000;5.39848000;2022-10-13T08:41:51;29.00;;;15.13;;
7829;SDS011;3960;51.86894000;5.39848000;2022-10-13T08:44:20;28.33;;;14.85;;
7829;SDS011;3960;51.86894000;5.39848000;2022-10-13T08:46:48;25.58;;;13.98;;
7829;SDS011;3960;51.86894000;5.39848000;2022-10-13T08:49:16;30.98;;;14.90;;
7829;SDS011;3960;51.86894000;5.39848000;2022-10-13T08:51:42;30.38;;;14.10;;
7829;SDS011;3960;51.86894000;5.39848000;2022-10-13T08:54:07;25.20;;;13.87;;
7829;SDS011;3960;51.86894000;5.39848000;2022-10-13T08:56:34;27.80;;;13.02;;
7829;SDS011;3960;51.86894000;5.39848000;2022-10-13T08:59:02;25.63;;;13.20;;
7829;SDS011;3960;51.86894000;5.39848000;2022-10-13T09:01:33;26.52;;;12.52;;
7829;SDS011;3960;51.86894000;5.39848000;2022-10-13T09:06:26;24.23;;;12.30;;
7829;SDS011;3960;51.86894000;5.39848000;2022-10-13T09:11:20;20.40;;;13.07;;
7829;SDS011;3960;51.86894000;5.39848000;2022-10-13T09:13:46;26.98;;;13.27;;
7829;SDS011;3960;51.86894000;5.39848000;2022-10-13T09:16:11;22.95;;;13.02;;
7829;SDS011;3960;51.86894000;5.39848000;2022-10-13T09:18:36;24.58;;;12.55;;
7829;SDS011;3960;51.86894000;5.39848000;2022-10-13T09:21:09;21.20;;;12.57;;
7829;SDS011;3960;51.86894000;5.39848000;2022-10-13T09:23:34;23.63;;;12.23;;
7829;SDS011;3960;51.86894000;5.39848000;2022-10-13T09:25:59;23.17;;;12.47;;
7829;SDS011;3960;51.86894000;5.39848000;2022-10-13T09:28:30;19.55;;;12.32;;
7829;SDS011;3960;51.86894000;5.39848000;2022-10-13T09:31:06;20.20;;;11.95;;
7829;SDS011;3960;51.86894000;5.39848000;2022-10-13T09:33:37;25.52;;;12.65;;
7829;SDS011;3960;51.86894000;5.39848000;2022-10-13T09:38:28;20.77;;;11.48;;
7829;SDS011;3960;51.86894000;5.39848000;2022-10-13T09:46:23;22.38;;;12.13;;
7829;SDS011;3960;51.86894000;5.39848000;2022-10-13T09:48:53;24.27;;;12.23;;
7829;SDS011;3960;51.86894000;5.39848000;2022-10-13T09:51:35;24.42;;;11.43;;
7829;SDS011;3960;51.86894000;5.39848000;2022-10-13T09:54:01;21.08;;;11.63;;
7829;SDS011;3960;51.86894000;5.39848000;2022-10-13T09:56:33;22.80;;;12.20;;
7829;SDS011;3960;51.86894000;5.39848000;2022-10-13T09:59:11;19.75;;;11.18;;
7829;SDS011;3960;51.86894000;5.39848000;2022-10-13T10:01:39;23.60;;;12.10;;
7829;SDS011;3960;51.86894000;5.39848000;2022-10-13T10:04:07;26.10;;;11.95;;
7829;SDS011;3960;51.86894000;5.39848000;2022-10-13T10:06:34;17.70;;;10.95;;
7829;SDS011;3960;51.86894000;5.39848000;2022-10-13T10:13:50;21.20;;;11.65;;
7829;SDS011;3960;51.86894000;5.39848000;2022-10-13T10:18:44;19.23;;;10.75;;
7829;SDS011;3960;51.86894000;5.39848000;2022-10-13T10:21:15;20.60;;;11.30;;
7829;SDS011;3960;51.86894000;5.39848000;2022-10-13T10:23:55;16.73;;;11.27;;
7829;SDS011;3960;51.86894000;5.39848000;2022-10-13T10:26:28;25.58;;;12.40;;
7829;SDS011;3960;51.86894000;5.39848000;2022-10-13T10:29:09;24.10;;;11.07;;
7829;SDS011;3960;51.86894000;5.39848000;2022-10-13T10:34:59;19.50;;;11.35;;
7829;SDS011;3960;51.86894000;5.39848000;2022-10-13T10:39:46;24.90;;;11.50;;
7829;SDS011;3960;51.86894000;5.39848000;2022-10-13T10:44:52;29.95;;;11.75;;
7829;SDS011;3960;51.86894000;5.39848000;2022-10-13T10:49:47;21.90;;;11.95;;
7829;SDS011;3960;51.86894000;5.39848000;2022-10-13T10:52:17;25.92;;;11.95;;
7829;SDS011;3960;51.86894000;5.39848000;2022-10-13T10:54:52;23.23;;;12.52;;
7829;SDS011;3960;51.86894000;5.39848000;2022-10-13T10:57:40;21.38;;;13.00;;
7829;SDS011;3960;51.86894000;5.39848000;2022-10-13T11:00:14;28.02;;;13.05;;
7829;SDS011;3960;51.86894000;5.39848000;2022-10-13T11:05:24;23.52;;;13.20;;
7829;SDS011;3960;51.86894000;5.39848000;2022-10-13T11:07:55;29.13;;;14.02;;
7829;SDS011;3960;51.86894000;5.39848000;2022-10-13T11:10:21;22.05;;;13.27;;
7829;SDS011;3960;51.86894000;5.39848000;2022-10-13T11:15:13;22.05;;;14.60;;
7829;SDS011;3960;51.86894000;5.39848000;2022-10-13T11:17:40;27.17;;;14.77;;
7829;SDS011;3960;51.86894000;5.39848000;2022-10-13T11:20:56;27.58;;;15.23;;
7829;SDS011;3960;51.86894000;5.39848000;2022-10-13T11:25:35;28.92;;;16.27;;
7829;SDS011;3960;51.86894000;5.39848000;2022-10-13T11:28:26;26.27;;;15.73;;
7829;SDS011;3960;51.86894000;5.39848000;2022-10-13T11:30:52;27.42;;;16.15;;
7829;SDS011;3960;51.86894000;5.39848000;2022-10-13T11:35:56;23.00;;;14.98;;
7829;SDS011;3960;51.86894000;5.39848000;2022-10-13T11:38:22;25.77;;;15.67;;
7829;SDS011;3960;51.86894000;5.39848000;2022-10-13T11:43:25;29.25;;;15.77;;
7829;SDS011;3960;51.86894000;5.39848000;2022-10-13T11:45:58;32.45;;;17.70;;
7829;SDS011;3960;51.86894000;5.39848000;2022-10-13T11:53:31;25.27;;;15.65;;
7829;SDS011;3960;51.86894000;5.39848000;2022-10-13T11:55:59;31.80;;;16.45;;
7829;SDS011;3960;51.86894000;5.39848000;2022-10-13T11:58:30;27.50;;;16.00;;
7829;SDS011;3960;51.86894000;5.39848000;2022-10-13T12:01:00;30.00;;;16.95;;
7829;SDS011;3960;51.86894000;5.39848000;2022-10-13T12:05:52;31.70;;;16.90;;
7829;SDS011;3960;51.86894000;5.39848000;2022-10-13T12:08:18;27.65;;;16.30;;
7829;SDS011;3960;51.86894000;5.39848000;2022-10-13T12:10:45;28.02;;;16.77;;
7829;SDS011;3960;51.86894000;5.39848000;2022-10-13T12:13:18;22.25;;;14.60;;
7829;SDS011;3960;51.86894000;5.39848000;2022-10-13T12:15:44;31.27;;;16.73;;
7829;SDS011;3960;51.86894000;5.39848000;2022-10-13T12:20:43;30.10;;;15.93;;
7829;SDS011;3960;51.86894000;5.39848000;2022-10-13T12:23:15;28.90;;;16.58;;
7829;SDS011;3960;51.86894000;5.39848000;2022-10-13T12:25:40;25.08;;;15.27;;
7829;SDS011;3960;51.86894000;5.39848000;2022-10-13T12:28:13;30.25;;;16.17;;
7829;SDS011;3960;51.86894000;5.39848000;2022-10-13T12:30:41;26.70;;;15.43;;
7829;SDS011;3960;51.86894000;5.39848000;2022-10-13T12:33:39;24.57;;;15.83;;
7829;SDS011;3960;51.86894000;5.39848000;2022-10-13T12:36:12;26.98;;;15.18;;
7829;SDS011;3960;51.86894000;5.39848000;2022-10-13T12:38:37;29.60;;;14.85;;
7829;SDS011;3960;51.86894000;5.39848000;2022-10-13T12:41:05;25.13;;;14.15;;
7829;SDS011;3960;51.86894000;5.39848000;2022-10-13T12:43:31;26.52;;;14.93;;
7829;SDS011;3960;51.86894000;5.39848000;2022-10-13T12:45:56;22.95;;;15.25;;
7829;SDS011;3960;51.86894000;5.39848000;2022-10-13T12:48:28;36.00;;;14.27;;
7829;SDS011;3960;51.86894000;5.39848000;2022-10-13T12:50:53;25.55;;;14.50;;
7829;SDS011;3960;51.86894000;5.39848000;2022-10-13T12:53:25;26.43;;;14.93;;
7829;SDS011;3960;51.86894000;5.39848000;2022-10-13T12:55:56;21.10;;;14.38;;
7829;SDS011;3960;51.86894000;5.39848000;2022-10-13T12:58:30;24.92;;;13.23;;
7829;SDS011;3960;51.86894000;5.39848000;2022-10-13T13:01:06;25.17;;;13.07;;
7829;SDS011;3960;51.86894000;5.39848000;2022-10-13T13:03:32;27.17;;;13.35;;
7829;SDS011;3960;51.86894000;5.39848000;2022-10-13T13:08:34;33.17;;;14.25;;
7829;SDS011;3960;51.86894000;5.39848000;2022-10-13T13:11:00;22.77;;;14.73;;
7829;SDS011;3960;51.86894000;5.39848000;2022-10-13T13:13:26;18.98;;;13.07;;
7829;SDS011;3960;51.86894000;5.39848000;2022-10-13T13:15:51;24.30;;;12.73;;
7829;SDS011;3960;51.86894000;5.39848000;2022-10-13T13:18:30;18.83;;;12.20;;
7829;SDS011;3960;51.86894000;5.39848000;2022-10-13T13:20:59;21.58;;;12.77;;
7829;SDS011;3960;51.86894000;5.39848000;2022-10-13T13:23:26;22.52;;;13.68;;
7829;SDS011;3960;51.86894000;5.39848000;2022-10-13T13:28:22;22.40;;;13.60;;
7829;SDS011;3960;51.86894000;5.39848000;2022-10-13T13:30:47;24.60;;;14.37;;
7829;SDS011;3960;51.86894000;5.39848000;2022-10-13T13:33:12;21.80;;;14.30;;
7829;SDS011;3960;51.86894000;5.39848000;2022-10-13T13:35:37;27.50;;;14.47;;
7829;SDS011;3960;51.86894000;5.39848000;2022-10-13T13:38:03;27.98;;;13.20;;
7829;SDS011;3960;51.86894000;5.39848000;2022-10-13T13:40:28;22.05;;;13.15;;
7829;SDS011;3960;51.86894000;5.39848000;2022-10-13T13:42:53;18.27;;;13.00;;
7829;SDS011;3960;51.86894000;5.39848000;2022-10-13T13:45:20;24.42;;;13.35;;
7829;SDS011;3960;51.86894000;5.39848000;2022-10-13T13:47:46;22.38;;;12.95;;
7829;SDS011;3960;51.86894000;5.39848000;2022-10-13T13:50:18;27.63;;;13.50;;
7829;SDS011;3960;51.86894000;5.39848000;2022-10-13T13:52:44;22.88;;;13.38;;
7829;SDS011;3960;51.86894000;5.39848000;2022-10-13T13:55:09;24.60;;;13.73;;
7829;SDS011;3960;51.86894000;5.39848000;2022-10-13T13:57:34;24.33;;;13.93;;
7829;SDS011;3960;51.86894000;5.39848000;2022-10-13T13:59:59;21.17;;;12.80;;
7829;SDS011;3960;51.86894000;5.39848000;2022-10-13T14:02:24;18.97;;;12.03;;
7829;SDS011;3960;51.86894000;5.39848000;2022-10-13T14:04:50;20.35;;;12.85;;
7829;SDS011;3960;51.86894000;5.39848000;2022-10-13T14:07:15;17.73;;;11.48;;
7829;SDS011;3960;51.86894000;5.39848000;2022-10-13T14:09:41;22.45;;;12.18;;
7829;SDS011;3960;51.86894000;5.39848000;2022-10-13T14:12:06;19.23;;;12.10;;
7829;SDS011;3960;51.86894000;5.39848000;2022-10-13T14:14:31;26.93;;;12.37;;
7829;SDS011;3960;51.86894000;5.39848000;2022-10-13T14:16:57;23.80;;;13.23;;